sensor_id;sensor_type;location;lat;lon;timestamp;pressure;altitude;pressure_sealevel;temperature;humidity
84283;BME280;74440;52.600;21.450;2024-02-28T00:03:46;101500;;;10.27;76
84283;BME280;74440;52.600;21.450;2024-02-28T00:07:47;101500;;;10.32;76
84283;BME280;74440;52.600;21.450;2024-02-28T00:11:49;101500;;;10.35;76
84283;BME280;74440;52.600;21.450;2024-02-28T00:15:50;101500;;;10.42;76
84283;BME280;74440;52.600;21.450;2024-02-28T00:20:03;101500;;;10.43;76
84283;BME280;74440;52.600;21.450;2024-02-28T00:24:05;101500;;;10.24;76
84283;BME280;74440;52.600;21.450;2024-02-28T00:28:07;101500;;;10.27;76
84283;BME280;74440;52.600;21.450;2024-02-28T00:32:09;101500;;;10.31;76
84283;BME280;74440;52.600;21.450;2024-02-28T00:36:10;101500;;;10.38;76
84283;BME280;74440;52.600;21.450;2024-02-28T00:40:12;101500;;;10.18;76
84283;BME280;74440;52.600;21.450;2024-02-28T00:44:13;101500;;;10.20;76
84283;BME280;74440;52.600;21.450;2024-02-28T00:48:15;101500;;;10.24;76
84283;BME280;74440;52.600;21.450;2024-02-28T00:52:16;101500;;;10.29;76
84283;BME280;74440;52.600;21.450;2024-02-28T00:56:32;101500;;;10.28;76
84283;BME280;74440;52.600;21.450;2024-02-28T01:00:34;101500;;;10.15;77
84283;BME280;74440;52.600;21.450;2024-02-28T01:04:36;101500;;;10.21;76
84283;BME280;74440;52.600;21.450;2024-02-28T01:08:37;101500;;;10.31;76
84283;BME280;74440;52.600;21.450;2024-02-28T01:12:38;101500;;;10.40;76
84283;BME280;74440;52.600;21.450;2024-02-28T01:16:40;101500;;;10.23;77
84283;BME280;74440;52.600;21.450;2024-02-28T01:20:41;101500;;;10.30;76
84283;BME280;74440;52.600;21.450;2024-02-28T01:24:42;101500;;;10.35;76
84283;BME280;74440;52.600;21.450;2024-02-28T01:28:44;101500;;;10.40;76
84283;BME280;74440;52.600;21.450;2024-02-28T01:33:01;101500;;;10.40;76
84283;BME280;74440;52.600;21.450;2024-02-28T01:37:03;101500;;;10.25;77
84283;BME280;74440;52.600;21.450;2024-02-28T01:41:04;101500;;;10.30;77
84283;BME280;74440;52.600;21.450;2024-02-28T01:45:07;101500;;;10.35;77
84283;BME280;74440;52.600;21.450;2024-02-28T01:49:11;101500;;;10.43;76
84283;BME280;74440;52.600;21.450;2024-02-28T01:53:13;101500;;;10.27;77
84283;BME280;74440;52.600;21.450;2024-02-28T01:57:15;101500;;;10.33;77
84283;BME280;74440;52.600;21.450;2024-02-28T02:01:17;101500;;;10.40;77
84283;BME280;74440;52.600;21.450;2024-02-28T02:05:18;101500;;;10.47;77
84283;BME280;74440;52.600;21.450;2024-02-28T02:09:31;101600;;;10.48;77
84283;BME280;74440;52.600;21.450;2024-02-28T02:13:33;101600;;;10.36;77
84283;BME280;74440;52.600;21.450;2024-02-28T02:17:36;101500;;;10.37;77
84283;BME280;74440;52.600;21.450;2024-02-28T02:21:46;101600;;;10.40;77
84283;BME280;74440;52.600;21.450;2024-02-28T02:25:50;101600;;;10.46;77
84283;BME280;74440;52.600;21.450;2024-02-28T02:30:02;101600;;;10.49;77
84283;BME280;74440;52.600;21.450;2024-02-28T02:34:04;101500;;;10.35;77
84283;BME280;74440;52.600;21.450;2024-02-28T02:38:05;101500;;;10.40;77
84283;BME280;74440;52.600;21.450;2024-02-28T02:42:07;101500;;;10.46;77
84283;BME280;74440;52.600;21.450;2024-02-28T02:46:09;101600;;;10.53;77
84283;BME280;74440;52.600;21.450;2024-02-28T02:50:10;101500;;;10.35;78
84283;BME280;74440;52.600;21.450;2024-02-28T02:54:12;101600;;;10.38;78
84283;BME280;74440;52.600;21.450;2024-02-28T02:58:13;101500;;;10.41;77
84283;BME280;74440;52.600;21.450;2024-02-28T03:02:15;101500;;;10.43;78
84283;BME280;74440;52.600;21.450;2024-02-28T03:06:31;101500;;;10.40;78
84283;BME280;74440;52.600;21.450;2024-02-28T03:10:33;101600;;;10.28;78
84283;BME280;74440;52.600;21.450;2024-02-28T03:14:37;101600;;;10.32;78
84283;BME280;74440;52.600;21.450;2024-02-28T03:18:38;101600;;;10.35;78
84283;BME280;74440;52.600;21.450;2024-02-28T03:22:40;101600;;;10.45;78
84283;BME280;74440;52.600;21.450;2024-02-28T03:26:41;101600;;;10.26;78
84283;BME280;74440;52.600;21.450;2024-02-28T03:30:45;101600;;;10.28;78
84283;BME280;74440;52.600;21.450;2024-02-28T03:34:46;101600;;;10.26;78
84283;BME280;74440;52.600;21.450;2024-02-28T03:38:47;101500;;;10.28;78
84283;BME280;74440;52.600;21.450;2024-02-28T03:43:00;101500;;;10.26;79
84283;BME280;74440;52.600;21.450;2024-02-28T03:47:01;101500;;;10.04;79
84283;BME280;74440;52.600;21.450;2024-02-28T03:51:03;101500;;;10.05;79
84283;BME280;74440;52.600;21.450;2024-02-28T03:55:06;101500;;;10.07;79
84283;BME280;74440;52.600;21.450;2024-02-28T03:59:07;101500;;;10.04;79
84283;BME280;74440;52.600;21.450;2024-02-28T04:03:09;101500;;;9.84;79
84283;BME280;74440;52.600;21.450;2024-02-28T04:07:11;101500;;;9.87;79
84283;BME280;74440;52.600;21.450;2024-02-28T04:11:12;101500;;;9.89;79
84283;BME280;74440;52.600;21.450;2024-02-28T04:15:14;101500;;;9.90;79
84283;BME280;74440;52.600;21.450;2024-02-28T04:19:33;101500;;;9.87;79
84283;BME280;74440;52.600;21.450;2024-02-28T04:23:38;101500;;;9.72;80
84283;BME280;74440;52.600;21.450;2024-02-28T04:27:40;101500;;;9.79;79
84283;BME280;74440;52.600;21.450;2024-02-28T04:31:41;101500;;;9.87;79
84283;BME280;74440;52.600;21.450;2024-02-28T04:35:43;101500;;;9.94;79
84283;BME280;74440;52.600;21.450;2024-02-28T04:40:01;101500;;;9.95;79
84283;BME280;74440;52.600;21.450;2024-02-28T04:44:02;101500;;;9.80;80
84283;BME280;74440;52.600;21.450;2024-02-28T04:48:05;101500;;;9.82;80
84283;BME280;74440;52.600;21.450;2024-02-28T04:52:06;101500;;;9.87;79
84283;BME280;74440;52.600;21.450;2024-02-28T04:56:07;101500;;;9.96;79
84283;BME280;74440;52.600;21.450;2024-02-28T05:00:09;101500;;;9.82;80
84283;BME280;74440;52.600;21.450;2024-02-28T05:04:11;101500;;;9.88;80
84283;BME280;74440;52.600;21.450;2024-02-28T05:08:12;101500;;;9.93;79
84283;BME280;74440;52.600;21.450;2024-02-28T05:12:14;101500;;;10.02;80
84283;BME280;74440;52.600;21.450;2024-02-28T05:16:29;101500;;;10.00;80
84283;BME280;74440;52.600;21.450;2024-02-28T05:20:33;101500;;;9.84;80
84283;BME280;74440;52.600;21.450;2024-02-28T05:24:34;101500;;;9.87;80
84283;BME280;74440;52.600;21.450;2024-02-28T05:28:36;101500;;;9.89;80
84283;BME280;74440;52.600;21.450;2024-02-28T05:32:37;101600;;;9.94;80
84283;BME280;74440;52.600;21.450;2024-02-28T05:36:40;101600;;;9.72;80
84283;BME280;74440;52.600;21.450;2024-02-28T05:40:42;101600;;;9.58;81
84283;BME280;74440;52.600;21.450;2024-02-28T05:44:43;101600;;;9.52;81
84283;BME280;74440;52.600;21.450;2024-02-28T05:48:45;101600;;;9.57;81
84283;BME280;74440;52.600;21.450;2024-02-28T05:52:59;101600;;;9.62;81
84283;BME280;74440;52.600;21.450;2024-02-28T05:57:00;101600;;;9.49;81
84283;BME280;74440;52.600;21.450;2024-02-28T06:01:02;101600;;;9.59;81
84283;BME280;74440;52.600;21.450;2024-02-28T06:05:04;101600;;;9.70;80
84283;BME280;74440;52.600;21.450;2024-02-28T06:09:05;101600;;;9.85;80
84283;BME280;74440;52.600;21.450;2024-02-28T06:13:07;101600;;;9.76;80
84283;BME280;74440;52.600;21.450;2024-02-28T06:17:08;101600;;;9.88;80
84283;BME280;74440;52.600;21.450;2024-02-28T06:21:09;101600;;;10.05;80
84283;BME280;74440;52.600;21.450;2024-02-28T06:25:11;101600;;;10.18;80
84283;BME280;74440;52.600;21.450;2024-02-28T06:29:28;101600;;;10.23;80
84283;BME280;74440;52.600;21.450;2024-02-28T06:33:29;101600;;;10.15;80
84283;BME280;74440;52.600;21.450;2024-02-28T06:37:31;101600;;;10.32;79
84283;BME280;74440;52.600;21.450;2024-02-28T06:41:32;101600;;;10.48;79
84283;BME280;74440;52.600;21.450;2024-02-28T06:45:34;101600;;;10.67;79
84283;BME280;74440;52.600;21.450;2024-02-28T06:49:37;101600;;;10.65;79
84283;BME280;74440;52.600;21.450;2024-02-28T06:53:38;101600;;;10.94;78
84283;BME280;74440;52.600;21.450;2024-02-28T06:57:41;101600;;;11.25;78
84283;BME280;74440;52.600;21.450;2024-02-28T07:01:42;101600;;;11.58;77
84283;BME280;74440;52.600;21.450;2024-02-28T07:05:57;101600;;;11.86;77
84283;BME280;74440;52.600;21.450;2024-02-28T07:09:59;101600;;;12.13;77
84283;BME280;74440;52.600;21.450;2024-02-28T07:14:01;101600;;;12.59;75
84283;BME280;74440;52.600;21.450;2024-02-28T07:18:05;101600;;;12.82;74
84283;BME280;74440;52.600;21.450;2024-02-28T07:22:07;101600;;;13.20;73
84283;BME280;74440;52.600;21.450;2024-02-28T07:26:08;101700;;;13.39;72
84283;BME280;74440;52.600;21.450;2024-02-28T07:30:11;101600;;;13.51;71
84283;BME280;74440;52.600;21.450;2024-02-28T07:34:12;101700;;;13.39;71
84283;BME280;74440;52.600;21.450;2024-02-28T07:38:14;101700;;;13.09;71
84283;BME280;74440;52.600;21.450;2024-02-28T07:42:26;101700;;;12.76;72
84283;BME280;74440;52.600;21.450;2024-02-28T07:46:28;101700;;;12.33;73
84283;BME280;74440;52.600;21.450;2024-02-28T07:50:29;101700;;;12.09;73
84283;BME280;74440;52.600;21.450;2024-02-28T07:54:30;101700;;;11.93;73
84283;BME280;74440;52.600;21.450;2024-02-28T07:58:32;101600;;;11.86;74
84283;BME280;74440;52.600;21.450;2024-02-28T08:02:39;101700;;;11.54;75
84283;BME280;74440;52.600;21.450;2024-02-28T08:06:41;101700;;;11.53;75
84283;BME280;74440;52.600;21.450;2024-02-28T08:10:42;101700;;;11.60;75
84283;BME280;74440;52.600;21.450;2024-02-28T08:14:47;101700;;;11.65;75
84283;BME280;74440;52.600;21.450;2024-02-28T08:18:56;101700;;;11.60;76
84283;BME280;74440;52.600;21.450;2024-02-28T08:22:59;101700;;;11.38;76
84283;BME280;74440;52.600;21.450;2024-02-28T08:27:01;101700;;;11.37;76
84283;BME280;74440;52.600;21.450;2024-02-28T08:31:03;101700;;;11.46;76
84283;BME280;74440;52.600;21.450;2024-02-28T08:35:08;101700;;;11.62;76
84283;BME280;74440;52.600;21.450;2024-02-28T08:39:27;101700;;;11.72;76
84283;BME280;74440;52.600;21.450;2024-02-28T08:43:29;101700;;;11.67;76
84283;BME280;74440;52.600;21.450;2024-02-28T08:47:30;101700;;;11.79;76
84283;BME280;74440;52.600;21.450;2024-02-28T08:51:31;101700;;;11.95;76
84283;BME280;74440;52.600;21.450;2024-02-28T08:55:33;101700;;;12.28;75
84283;BME280;74440;52.600;21.450;2024-02-28T08:59:34;101700;;;12.35;75
84283;BME280;74440;52.600;21.450;2024-02-28T09:03:36;101700;;;12.28;74
84283;BME280;74440;52.600;21.450;2024-02-28T09:07:37;101700;;;12.32;75
84283;BME280;74440;52.600;21.450;2024-02-28T09:11:38;101700;;;12.51;74
84283;BME280;74440;52.600;21.450;2024-02-28T09:15:56;101700;;;12.50;74
84283;BME280;74440;52.600;21.450;2024-02-28T09:19:58;101700;;;12.34;75
84283;BME280;74440;52.600;21.450;2024-02-28T09:24:02;101700;;;12.45;75
84283;BME280;74440;52.600;21.450;2024-02-28T09:28:03;101700;;;12.76;74
84283;BME280;74440;52.600;21.450;2024-02-28T09:32:05;101700;;;13.13;73
84283;BME280;74440;52.600;21.450;2024-02-28T09:36:07;101700;;;12.93;73
84283;BME280;74440;52.600;21.450;2024-02-28T09:40:12;101700;;;12.81;73
84283;BME280;74440;52.600;21.450;2024-02-28T09:44:14;101700;;;12.81;74
84283;BME280;74440;52.600;21.450;2024-02-28T09:48:16;101700;;;12.93;74
84283;BME280;74440;52.600;21.450;2024-02-28T09:52:26;101700;;;13.01;74
84283;BME280;74440;52.600;21.450;2024-02-28T09:56:28;101700;;;12.90;74
84283;BME280;74440;52.600;21.450;2024-02-28T10:00:29;101700;;;13.07;74
84283;BME280;74440;52.600;21.450;2024-02-28T10:04:32;101700;;;13.30;74
84283;BME280;74440;52.600;21.450;2024-02-28T10:08:34;101700;;;13.70;73
84283;BME280;74440;52.600;21.450;2024-02-28T10:12:41;101700;;;13.87;72
84283;BME280;74440;52.600;21.450;2024-02-28T10:16:45;101700;;;14.04;71
84283;BME280;74440;52.600;21.450;2024-02-28T10:20:47;101700;;;14.07;71
84283;BME280;74440;52.600;21.450;2024-02-28T10:24:49;101700;;;14.10;71
84283;BME280;74440;52.600;21.450;2024-02-28T10:28:59;101700;;;14.24;71
84283;BME280;74440;52.600;21.450;2024-02-28T10:33:01;101700;;;14.24;71
84283;BME280;74440;52.600;21.450;2024-02-28T10:37:03;101700;;;14.26;71
84283;BME280;74440;52.600;21.450;2024-02-28T10:41:06;101700;;;14.25;71
84283;BME280;74440;52.600;21.450;2024-02-28T10:45:08;101700;;;14.18;71
84283;BME280;74440;52.600;21.450;2024-02-28T10:49:11;101700;;;13.97;71
84283;BME280;74440;52.600;21.450;2024-02-28T10:53:14;101700;;;13.91;71
84283;BME280;74440;52.600;21.450;2024-02-28T10:57:18;101700;;;13.86;71
84283;BME280;74440;52.600;21.450;2024-02-28T11:01:21;101700;;;13.88;71
84283;BME280;74440;52.600;21.450;2024-02-28T11:05:41;101700;;;13.83;72
84283;BME280;74440;52.600;21.450;2024-02-28T11:09:42;101700;;;13.66;72
84283;BME280;74440;52.600;21.450;2024-02-28T11:13:52;101700;;;13.63;72
84283;BME280;74440;52.600;21.450;2024-02-28T11:22:07;101700;;;13.59;73
84283;BME280;74440;52.600;21.450;2024-02-28T11:26:09;101700;;;13.59;73
84283;BME280;74440;52.600;21.450;2024-02-28T11:30:11;101700;;;13.46;73
84283;BME280;74440;52.600;21.450;2024-02-28T11:34:13;101700;;;13.45;73
84283;BME280;74440;52.600;21.450;2024-02-28T11:38:15;101700;;;13.47;73
84283;BME280;74440;52.600;21.450;2024-02-28T11:42:17;101700;;;13.46;74
84283;BME280;74440;52.600;21.450;2024-02-28T11:46:32;101700;;;13.41;74
84283;BME280;74440;52.600;21.450;2024-02-28T11:50:34;101700;;;13.20;75
84283;BME280;74440;52.600;21.450;2024-02-28T11:54:35;101700;;;13.11;75
84283;BME280;74440;52.600;21.450;2024-02-28T11:58:36;101700;;;13.05;75
84283;BME280;74440;52.600;21.450;2024-02-28T12:02:38;101700;;;13.01;75
84283;BME280;74440;52.600;21.450;2024-02-28T12:06:40;101700;;;12.73;76
84283;BME280;74440;52.600;21.450;2024-02-28T12:10:41;101700;;;12.64;76
84283;BME280;74440;52.600;21.450;2024-02-28T12:14:43;101700;;;12.56;75
84283;BME280;74440;52.600;21.450;2024-02-28T12:18:47;101700;;;12.53;75
84283;BME280;74440;52.600;21.450;2024-02-28T12:23:00;101700;;;12.46;76
84283;BME280;74440;52.600;21.450;2024-02-28T12:27:02;101700;;;12.26;76
84283;BME280;74440;52.600;21.450;2024-02-28T12:31:03;101700;;;12.27;76
84283;BME280;74440;52.600;21.450;2024-02-28T12:35:09;101700;;;12.26;76
84283;BME280;74440;52.600;21.450;2024-02-28T12:39:10;101700;;;12.24;76
84283;BME280;74440;52.600;21.450;2024-02-28T12:43:12;101700;;;12.00;77
84283;BME280;74440;52.600;21.450;2024-02-28T12:47:15;101700;;;11.94;77
84283;BME280;74440;52.600;21.450;2024-02-28T12:55:29;101700;;;11.85;76
84283;BME280;74440;52.600;21.450;2024-02-28T12:59:31;101700;;;11.82;77
84283;BME280;74440;52.600;21.450;2024-02-28T13:06:38;101700;;;11.57;76
84283;BME280;74440;52.600;21.450;2024-02-28T13:10:40;101700;;;11.56;76
84283;BME280;74440;52.600;21.450;2024-02-28T13:14:42;101700;;;11.55;76
84283;BME280;74440;52.600;21.450;2024-02-28T13:18:43;101700;;;11.56;76
84283;BME280;74440;52.600;21.450;2024-02-28T13:22:45;101700;;;11.31;76
84283;BME280;74440;52.600;21.450;2024-02-28T13:26:46;101700;;;11.32;76
84283;BME280;74440;52.600;21.450;2024-02-28T13:30:48;101700;;;11.36;76
84283;BME280;74440;52.600;21.450;2024-02-28T13:34:49;101700;;;11.40;76
84283;BME280;74440;52.600;21.450;2024-02-28T13:39:07;101700;;;11.40;76
84283;BME280;74440;52.600;21.450;2024-02-28T13:43:09;101800;;;11.23;76
84283;BME280;74440;52.600;21.450;2024-02-28T13:47:10;101700;;;11.28;76
84283;BME280;74440;52.600;21.450;2024-02-28T13:51:15;101800;;;11.29;76
84283;BME280;74440;52.600;21.450;2024-02-28T13:55:16;101800;;;11.32;76
84283;BME280;74440;52.600;21.450;2024-02-28T13:59:19;101800;;;11.10;77
84283;BME280;74440;52.600;21.450;2024-02-28T14:03:20;101800;;;11.10;76
84283;BME280;74440;52.600;21.450;2024-02-28T14:07:26;101800;;;11.12;76
84283;BME280;74440;52.600;21.450;2024-02-28T14:11:28;101800;;;11.16;76
84283;BME280;74440;52.600;21.450;2024-02-28T14:15:36;101800;;;11.16;76
84283;BME280;74440;52.600;21.450;2024-02-28T14:19:38;101800;;;10.97;77
84283;BME280;74440;52.600;21.450;2024-02-28T14:23:39;101800;;;10.98;76
84283;BME280;74440;52.600;21.450;2024-02-28T14:27:45;101800;;;11.00;76
84283;BME280;74440;52.600;21.450;2024-02-28T14:31:46;101800;;;11.01;76
84283;BME280;74440;52.600;21.450;2024-02-28T14:35:48;101800;;;10.80;77
84283;BME280;74440;52.600;21.450;2024-02-28T14:39:49;101800;;;10.80;77
84283;BME280;74440;52.600;21.450;2024-02-28T14:43:50;101800;;;10.84;77
84283;BME280;74440;52.600;21.450;2024-02-28T14:47:52;101800;;;10.89;77
84283;BME280;74440;52.600;21.450;2024-02-28T14:52:05;101800;;;10.86;77
84283;BME280;74440;52.600;21.450;2024-02-28T14:56:07;101800;;;10.69;77
84283;BME280;74440;52.600;21.450;2024-02-28T15:00:09;101800;;;10.68;77
84283;BME280;74440;52.600;21.450;2024-02-28T15:04:14;101800;;;10.68;77
84283;BME280;74440;52.600;21.450;2024-02-28T15:08:16;101800;;;10.71;78
84283;BME280;74440;52.600;21.450;2024-02-28T15:12:18;101800;;;10.51;78
84283;BME280;74440;52.600;21.450;2024-02-28T15:16:19;101800;;;10.53;78
84283;BME280;74440;52.600;21.450;2024-02-28T15:20:20;101800;;;10.53;78
84283;BME280;74440;52.600;21.450;2024-02-28T15:24:24;101800;;;10.57;78
84283;BME280;74440;52.600;21.450;2024-02-28T15:28:34;101800;;;10.55;78
84283;BME280;74440;52.600;21.450;2024-02-28T15:32:36;101800;;;10.37;78
84283;BME280;74440;52.600;21.450;2024-02-28T15:36:40;101800;;;10.39;78
84283;BME280;74440;52.600;21.450;2024-02-28T15:40:42;101800;;;10.41;78
84283;BME280;74440;52.600;21.450;2024-02-28T15:44:43;101900;;;10.44;78
84283;BME280;74440;52.600;21.450;2024-02-28T15:48:45;101900;;;10.25;79
84283;BME280;74440;52.600;21.450;2024-02-28T15:52:46;101900;;;10.28;79
84283;BME280;74440;52.600;21.450;2024-02-28T15:56:48;101900;;;10.26;79
84283;BME280;74440;52.600;21.450;2024-02-28T16:00:49;101900;;;10.31;79
84283;BME280;74440;52.600;21.450;2024-02-28T16:05:04;101900;;;10.27;79
84283;BME280;74440;52.600;21.450;2024-02-28T16:09:05;101900;;;10.11;79
84283;BME280;74440;52.600;21.450;2024-02-28T16:13:10;101900;;;10.13;79
84283;BME280;74440;52.600;21.450;2024-02-28T16:17:12;101900;;;10.16;79
84283;BME280;74440;52.600;21.450;2024-02-28T16:21:16;101900;;;10.22;79
84283;BME280;74440;52.600;21.450;2024-02-28T16:25:35;101900;;;10.22;79
84283;BME280;74440;52.600;21.450;2024-02-28T16:29:37;101900;;;10.06;79
84283;BME280;74440;52.600;21.450;2024-02-28T16:33:38;101900;;;10.07;79
84283;BME280;74440;52.600;21.450;2024-02-28T16:37:39;101900;;;10.09;79
84283;BME280;74440;52.600;21.450;2024-02-28T16:41:41;101900;;;10.12;79
84283;BME280;74440;52.600;21.450;2024-02-28T16:45:43;101900;;;9.90;80
84283;BME280;74440;52.600;21.450;2024-02-28T16:49:44;101900;;;9.89;80
84283;BME280;74440;52.600;21.450;2024-02-28T16:53:46;101900;;;9.90;80
84283;BME280;74440;52.600;21.450;2024-02-28T16:57:48;101900;;;9.95;80
84283;BME280;74440;52.600;21.450;2024-02-28T17:02:04;101900;;;9.92;80
84283;BME280;74440;52.600;21.450;2024-02-28T17:06:06;101900;;;9.74;80
84283;BME280;74440;52.600;21.450;2024-02-28T17:10:08;101900;;;9.73;80
84283;BME280;74440;52.600;21.450;2024-02-28T17:14:10;101900;;;9.74;80
84283;BME280;74440;52.600;21.450;2024-02-28T17:18:11;101900;;;9.78;80
84283;BME280;74440;52.600;21.450;2024-02-28T17:22:13;101900;;;9.55;80
84283;BME280;74440;52.600;21.450;2024-02-28T17:26:18;101900;;;9.54;80
84283;BME280;74440;52.600;21.450;2024-02-28T17:30:19;101900;;;9.57;80
84283;BME280;74440;52.600;21.450;2024-02-28T17:34:21;101900;;;9.60;80
84283;BME280;74440;52.600;21.450;2024-02-28T17:38:33;101900;;;9.60;80
84283;BME280;74440;52.600;21.450;2024-02-28T17:42:36;101900;;;9.44;80
84283;BME280;74440;52.600;21.450;2024-02-28T17:46:38;101900;;;9.48;80
84283;BME280;74440;52.600;21.450;2024-02-28T17:50:39;101900;;;9.54;80
84283;BME280;74440;52.600;21.450;2024-02-28T17:54:41;101900;;;9.62;80
84283;BME280;74440;52.600;21.450;2024-02-28T17:58:42;101900;;;9.46;80
84283;BME280;74440;52.600;21.450;2024-02-28T18:02:44;101900;;;9.53;80
84283;BME280;74440;52.600;21.450;2024-02-28T18:06:45;101900;;;9.57;80
84283;BME280;74440;52.600;21.450;2024-02-28T18:10:47;101900;;;9.64;80
84283;BME280;74440;52.600;21.450;2024-02-28T18:15:02;102000;;;9.63;80
84283;BME280;74440;52.600;21.450;2024-02-28T18:19:05;102000;;;9.45;80
84283;BME280;74440;52.600;21.450;2024-02-28T18:23:09;102000;;;9.50;80
84283;BME280;74440;52.600;21.450;2024-02-28T18:27:10;102000;;;9.53;80
84283;BME280;74440;52.600;21.450;2024-02-28T18:31:15;102000;;;9.55;80
84283;BME280;74440;52.600;21.450;2024-02-28T18:35:33;102000;;;9.53;80
84283;BME280;74440;52.600;21.450;2024-02-28T18:39:38;102000;;;9.38;80
84283;BME280;74440;52.600;21.450;2024-02-28T18:43:42;102000;;;9.40;80
84283;BME280;74440;52.600;21.450;2024-02-28T18:47:46;102000;;;9.42;80
84283;BME280;74440;52.600;21.450;2024-02-28T18:51:47;102000;;;9.46;80
84283;BME280;74440;52.600;21.450;2024-02-28T18:56:05;102000;;;9.47;80
84283;BME280;74440;52.600;21.450;2024-02-28T19:00:07;102000;;;9.28;80
84283;BME280;74440;52.600;21.450;2024-02-28T19:04:08;102000;;;9.21;79
84283;BME280;74440;52.600;21.450;2024-02-28T19:08:10;102000;;;9.13;79
84283;BME280;74440;52.600;21.450;2024-02-28T19:12:11;102000;;;9.14;79
84283;BME280;74440;52.600;21.450;2024-02-28T19:16:13;102000;;;8.91;80
84283;BME280;74440;52.600;21.450;2024-02-28T19:20:16;102000;;;8.90;80
84283;BME280;74440;52.600;21.450;2024-02-28T19:24:18;102000;;;8.90;80
84283;BME280;74440;52.600;21.450;2024-02-28T19:28:22;102000;;;8.95;79
84283;BME280;74440;52.600;21.450;2024-02-28T19:32:34;102000;;;8.91;80
84283;BME280;74440;52.600;21.450;2024-02-28T19:36:39;102000;;;8.72;80
84283;BME280;74440;52.600;21.450;2024-02-28T19:40:41;102000;;;8.73;80
84283;BME280;74440;52.600;21.450;2024-02-28T19:44:42;102000;;;8.76;80
84283;BME280;74440;52.600;21.450;2024-02-28T19:48:44;102000;;;8.84;80
84283;BME280;74440;52.600;21.450;2024-02-28T19:52:48;102000;;;8.63;80
84283;BME280;74440;52.600;21.450;2024-02-28T19:56:49;102000;;;8.64;80
84283;BME280;74440;52.600;21.450;2024-02-28T20:00:53;102000;;;8.67;80
84283;BME280;74440;52.600;21.450;2024-02-28T20:04:54;102000;;;8.68;80
84283;BME280;74440;52.600;21.450;2024-02-28T20:09:04;102000;;;8.68;80
84283;BME280;74440;52.600;21.450;2024-02-28T20:13:10;102000;;;8.53;80
84283;BME280;74440;52.600;21.450;2024-02-28T20:17:15;102000;;;8.52;80
84283;BME280;74440;52.600;21.450;2024-02-28T20:21:17;102000;;;8.51;80
84283;BME280;74440;52.600;21.450;2024-02-28T20:25:18;102000;;;8.56;80
84283;BME280;74440;52.600;21.450;2024-02-28T20:29:35;102000;;;8.55;80
84283;BME280;74440;52.600;21.450;2024-02-28T20:33:37;102000;;;8.39;80
84283;BME280;74440;52.600;21.450;2024-02-28T20:37:38;102000;;;8.43;80
84283;BME280;74440;52.600;21.450;2024-02-28T20:41:40;102000;;;8.48;80
84283;BME280;74440;52.600;21.450;2024-02-28T20:45:42;102100;;;8.56;80
84283;BME280;74440;52.600;21.450;2024-02-28T20:49:43;102100;;;8.40;80
84283;BME280;74440;52.600;21.450;2024-02-28T20:53:45;102100;;;8.44;80
84283;BME280;74440;52.600;21.450;2024-02-28T20:57:55;102100;;;8.49;80
84283;BME280;74440;52.600;21.450;2024-02-28T21:01:56;102100;;;8.58;80
84283;BME280;74440;52.600;21.450;2024-02-28T21:06:04;102100;;;8.61;80
84283;BME280;74440;52.600;21.450;2024-02-28T21:10:07;102100;;;8.44;80
84283;BME280;74440;52.600;21.450;2024-02-28T21:14:11;102100;;;8.49;80
84283;BME280;74440;52.600;21.450;2024-02-28T21:18:13;102100;;;8.56;80
84283;BME280;74440;52.600;21.450;2024-02-28T21:22:14;102100;;;8.60;79
84283;BME280;74440;52.600;21.450;2024-02-28T21:26:15;102100;;;8.40;80
84283;BME280;74440;52.600;21.450;2024-02-28T21:30:17;102100;;;8.44;80
84283;BME280;74440;52.600;21.450;2024-02-28T21:34:18;102100;;;8.48;80
84283;BME280;74440;52.600;21.450;2024-02-28T21:38:20;102100;;;8.56;80
84283;BME280;74440;52.600;21.450;2024-02-28T21:42:33;102100;;;8.56;80
84283;BME280;74440;52.600;21.450;2024-02-28T21:46:35;102100;;;8.56;82
84283;BME280;74440;52.600;21.450;2024-02-28T21:50:37;102100;;;8.64;80
84283;BME280;74440;52.600;21.450;2024-02-28T21:54:42;102100;;;8.65;80
84283;BME280;74440;52.600;21.450;2024-02-28T21:58:43;102100;;;8.66;79
84283;BME280;74440;52.600;21.450;2024-02-28T22:02:46;102100;;;8.43;80
84283;BME280;74440;52.600;21.450;2024-02-28T22:06:48;102100;;;8.44;80
84283;BME280;74440;52.600;21.450;2024-02-28T22:10:50;102100;;;8.40;79
84283;BME280;74440;52.600;21.450;2024-02-28T22:14:51;102100;;;8.37;79
84283;BME280;74440;52.600;21.450;2024-02-28T22:19:03;102100;;;8.25;79
84283;BME280;74440;52.600;21.450;2024-02-28T22:23:05;102100;;;8.02;79
84283;BME280;74440;52.600;21.450;2024-02-28T22:27:06;102100;;;7.97;79
84283;BME280;74440;52.600;21.450;2024-02-28T22:31:08;102100;;;7.98;79
84283;BME280;74440;52.600;21.450;2024-02-28T22:35:10;102100;;;7.98;79
84283;BME280;74440;52.600;21.450;2024-02-28T22:39:14;102100;;;7.68;79
84283;BME280;74440;52.600;21.450;2024-02-28T22:43:15;102100;;;7.67;79
84283;BME280;74440;52.600;21.450;2024-02-28T22:47:16;102200;;;7.69;79
84283;BME280;74440;52.600;21.450;2024-02-28T22:51:18;102200;;;7.76;79
84283;BME280;74440;52.600;21.450;2024-02-28T22:55:32;102200;;;7.75;79
84283;BME280;74440;52.600;21.450;2024-02-28T22:59:33;102200;;;7.60;80
84283;BME280;74440;52.600;21.450;2024-02-28T23:03:35;102200;;;7.65;79